Aviation Digital Data Service (ADDS)

Output produced by METARs form (1344 UTC 20 October 2021)
found at http://www.aviationweather.gov/metar/data/
 
METAR text: EPGD 201330Z 22016KT CAVOK 17/11 Q1000
Conditions at: EPGD (GDANSK/REBIECHOW, PL) observed 1330 UTC 20 October 2021
Temperature: 17.0°C (63°F)
Dewpoint: 11.0°C (52°F) [RH = 68%]
Pressure (altimeter): 29.53 inches Hg (1000.0 mb)
Winds: from the SW (220 degrees) at 18 MPH (16 knots; 8.2 m/s)
Visibility: 6 or more miles (10+ km)
Ceiling: ceiling and visibility are OK
Clouds: unknown
Weather: no significant weather observed at this time

METAR text: EPGD 201300Z 22016G26KT CAVOK 17/11 Q1000
Conditions at: EPGD (GDANSK/REBIECHOW, PL) observed 1300 UTC 20 October 2021
Temperature: 17.0°C (63°F)
Dewpoint: 11.0°C (52°F) [RH = 68%]
Pressure (altimeter): 29.53 inches Hg (1000.0 mb)
Winds: from the SW (220 degrees) at 18 MPH (16 knots; 8.2 m/s)
gusting to 30 MPH (26 knots; 13.4 m/s)
Visibility: 6 or more miles (10+ km)
Ceiling: ceiling and visibility are OK
Clouds: unknown
Weather: no significant weather observed at this time

Forecast for: EPGD (GDANSK/REBIECHOW, PL)
Text: TAF EPGD 201130Z 2012/2112 22015KT CAVOK
Forecast period: 1200 UTC 20 October 2021 to 1200 UTC 21 October 2021
Forecast type: FROM: standard forecast or significant change
Winds: from the SW (220 degrees) at 17 MPH (15 knots; 7.7 m/s)
Visibility: 6 or more miles (10+ km)
Ceiling: unknown
Clouds: missing
Weather: NSW  (no significant weather)
Text: TEMPO 2012/2019 23018G28KT
Forecast period: 1200 to 1900 UTC 20 October 2021
Forecast type: TEMPORARY: The following changes expected for less than half the time period
Winds: from the SW (230 degrees) at 21 MPH (18 knots; 9.3 m/s)
gusting to 32 MPH (28 knots; 14.4 m/s)
Visibility: missing
Ceiling: unknown
Clouds: missing
Weather: no significant weather forecast for this period
Text: TEMPO 2102/2105 SHRA SCT009 BKN014CB
Forecast period: 0200 to 0500 UTC 21 October 2021
Forecast type: TEMPORARY: The following changes expected for less than half the time period
Visibility: missing
Ceiling: 1400 feet AGL
Clouds: scattered clouds at 900 feet AGL
broken clouds at 1400 feet AGL
Weather: SHRA  (rain showers)
Text: TEMPO 2109/2112 21018G30KT SHRA SCT010 BKN020CB
Forecast period: 0900 to 1200 UTC 21 October 2021
Forecast type: TEMPORARY: The following changes expected for less than half the time period
Winds: from the SSW (210 degrees) at 21 MPH (18 knots; 9.3 m/s)
gusting to 34 MPH (30 knots; 15.4 m/s)
Visibility: missing
Ceiling: 2000 feet AGL
Clouds: scattered clouds at 1000 feet AGL
broken clouds at 2000 feet AGL
Weather: SHRA  (rain showers)